Terminal Aerodrome Forecast
Issued by NWS

Home | Current Version | Previous Version | Text Only | Print | Product List | Glossary On
Versions: 1 2 3 4 5 6 7 8 9 10 11 12 13 14
000
FTUS43 KJKL 261123
TAFSME
TAF
KSME 261123Z 2612/2712 15003KT P6SM SCT090
     FM261600 21009KT P6SM VCTS BKN040CB BKN250
     FM261900 19006KT 3SM -TSRA BKN035CB OVC250
     FM270100 21005KT 5SM SHRA VCTS SCT030CB BKN250=

USA.gov is the U.S. government's official web portal to all federal, state and local government web resources and services.